Time;durP1;ratioP1;P1;durP2;ratioP2;P2;SDS_P1;SDS_P2;PMS_P1;PMS_P2;Temp;Humidity;BMP_temperature;BMP_pressure;BME280_temperature;BME280_humidity;BME280_pressure;Samples;Min_cycle;Max_cycle;Signal;HPM_P1;HPM_P2
2023/05/19 00:01:17;;;;;;;5.10;3.20;;;;;;;7.64;78.41;101636.73;105669;1257;69853;-60
2023/05/19 00:03:57;;;;;;;5.30;3.00;;;;;;;7.64;78.24;101639.33;105681;1251;69105;-61
2023/05/19 00:06:30;;;;;;;6.90;3.10;;;;;;;7.64;78.41;101637.25;105640;1256;74808;-59
2023/05/19 00:09:10;;;;;;;5.10;3.40;;;;;;;7.65;78.52;101631.85;105658;1257;82406;-59
2023/05/19 00:11:39;;;;;;;4.90;3.30;;;;;;;7.63;78.71;101626.83;105675;1256;73941;-59
2023/05/19 00:14:09;;;;;;;5.60;3.40;;;;;;;7.61;78.83;101629.96;105696;1252;69253;-59
2023/05/19 00:16:37;;;;;;;5.40;4.10;;;;;;;7.59;79.09;101623.36;105627;1251;68996;-59
2023/05/19 00:19:08;;;;;;;5.80;3.80;;;;;;;7.58;79.16;101622.84;105662;1264;73855;-60
2023/05/19 00:21:37;;;;;;;8.40;3.40;;;;;;;7.57;78.97;101622.50;105668;1251;81874;-59
2023/05/19 00:24:06;;;;;;;6.10;3.50;;;;;;;7.57;78.89;101626.85;105604;1256;72855;-59
2023/05/19 00:26:35;;;;;;;5.70;3.20;;;;;;;7.55;79.04;101620.07;105686;1258;69116;-59
2023/05/19 00:29:05;;;;;;;6.30;4.00;;;;;;;7.55;79.22;101620.59;105613;1257;69176;-59
2023/05/19 00:31:33;;;;;;;6.20;3.40;;;;;;;7.54;79.27;101621.30;105694;1264;74309;-60
2023/05/19 00:34:01;;;;;;;4.40;3.30;;;;;;;7.52;79.46;101627.56;105624;1251;83328;-59
2023/05/19 00:36:30;;;;;;;4.00;3.20;;;;;;;7.51;79.31;101625.66;105636;1257;73714;-59
2023/05/19 00:38:58;;;;;;;4.70;3.40;;;;;;;7.48;79.36;101626.38;105580;1251;69081;-59
2023/05/19 00:41:28;;;;;;;6.70;3.50;;;;;;;7.44;79.61;101624.13;105680;1251;69035;-59
2023/05/19 00:43:56;;;;;;;5.80;4.20;;;;;;;7.41;79.58;101624.83;105578;1251;74746;-59
2023/05/19 00:46:24;;;;;;;7.10;3.80;;;;;;;7.39;79.56;101632.33;105526;1251;83714;-59
2023/05/19 00:48:53;;;;;;;6.90;4.40;;;;;;;7.39;79.56;101629.36;105610;1251;72854;-59
2023/05/19 00:51:23;;;;;;;6.80;3.90;;;;;;;7.41;79.80;101633.18;105591;1251;69192;-59
2023/05/19 00:53:51;;;;;;;5.30;3.90;;;;;;;7.40;79.75;101634.06;105659;1251;69205;-59
2023/05/19 00:56:20;;;;;;;4.60;3.90;;;;;;;7.36;79.76;101640.86;105668;1257;75179;-60
2023/05/19 00:58:50;;;;;;;6.00;3.90;;;;;;;7.32;79.92;101640.88;105629;1251;82383;-60
2023/05/19 01:01:20;;;;;;;6.50;3.80;;;;;;;7.30;79.90;101645.04;105668;1257;73053;-59
2023/05/19 01:03:50;;;;;;;4.60;3.20;;;;;;;7.31;80.09;101646.61;105660;1251;69061;-60
2023/05/19 01:06:19;;;;;;;6.40;3.60;;;;;;;7.30;79.96;101649.92;105684;1256;69185;-59
2023/05/19 01:08:50;;;;;;;6.50;4.20;;;;;;;7.26;80.25;101647.50;105659;1255;74533;-59
2023/05/19 01:11:18;;;;;;;5.80;4.00;;;;;;;7.25;80.21;101650.98;105655;1255;83334;-59
2023/05/19 01:13:47;;;;;;;6.40;3.70;;;;;;;7.25;80.54;101649.41;105525;1257;72636;-59
2023/05/19 01:16:36;;;;;;;4.60;3.70;;;;;;;7.25;80.66;101650.29;105646;1257;69083;-59
2023/05/19 01:19:42;;;;;;;4.10;3.50;;;;;;;7.23;80.56;101654.45;105552;1257;69182;-59
2023/05/19 01:22:13;;;;;;;6.00;3.80;;;;;;;7.22;80.82;101655.85;105662;1256;75235;-59
2023/05/19 01:25:00;;;;;;;7.00;3.80;;;;;;;7.21;80.95;101657.78;105570;1251;83446;-59
2023/05/19 01:27:46;;;;;;;6.60;4.20;;;;;;;7.21;80.95;101663.69;105627;1251;71760;-59
2023/05/19 01:30:24;;;;;;;4.80;3.60;;;;;;;7.21;81.07;101666.48;105604;1255;69170;-59
2023/05/19 01:32:54;;;;;;;6.00;3.70;;;;;;;7.22;81.37;101667.85;105632;1251;69074;-59
2023/05/19 01:35:24;;;;;;;6.90;3.70;;;;;;;7.23;81.43;101668.19;105665;1255;74778;-60
2023/05/19 01:37:56;;;;;;;5.10;3.50;;;;;;;7.25;81.45;101666.80;105646;1256;83311;-59
2023/05/19 01:40:26;;;;;;;6.60;3.90;;;;;;;7.28;81.64;101667.48;105624;1251;73491;-59
2023/05/19 01:42:57;;;;;;;6.80;4.20;;;;;;;7.29;81.63;101666.10;105535;1251;69211;-59
2023/05/19 01:45:27;;;;;;;6.70;3.60;;;;;;;7.31;81.94;101665.58;105638;1251;69268;-59
2023/05/19 01:47:58;;;;;;;8.70;4.70;;;;;;;7.32;81.65;101665.39;105626;1256;75171;-59
2023/05/19 01:50:27;;;;;;;9.50;4.70;;;;;;;7.35;81.78;101668.69;105635;1251;82788;-59
2023/05/19 01:52:56;;;;;;;6.50;4.40;;;;;;;7.36;81.82;101666.41;105597;1253;72748;-59
2023/05/19 01:55:25;;;;;;;7.60;4.80;;;;;;;7.36;81.93;101667.10;105709;1257;69178;-59
2023/05/19 01:58:11;;;;;;;8.70;4.90;;;;;;;7.38;82.12;101667.80;105682;1251;69185;-59
2023/05/19 02:00:53;;;;;;;8.40;4.80;;;;;;;7.40;81.99;101666.76;105681;1257;74299;-59
2023/05/19 02:03:58;;;;;;;6.70;5.10;;;;;;;7.42;82.01;101662.58;105633;1255;83894;-59
2023/05/19 02:06:38;;;;;;;5.40;3.80;;;;;;;7.42;82.13;101658.05;105668;1251;73408;-59
2023/05/19 02:09:07;;;;;;;5.60;4.40;;;;;;;7.37;81.92;101659.63;105591;1251;69093;-59
2023/05/19 02:11:39;;;;;;;5.50;4.80;;;;;;;7.33;81.97;101659.11;105605;1251;69855;-59
2023/05/19 02:14:13;;;;;;;7.00;4.00;;;;;;;7.33;82.00;101658.08;105600;1256;75011;-59
2023/05/19 02:16:45;;;;;;;6.20;4.30;;;;;;;7.32;81.99;101657.91;105618;1256;83467;-59
2023/05/19 02:19:25;;;;;;;7.30;5.00;;;;;;;7.30;81.94;101658.44;105592;1255;73688;-59
2023/05/19 02:21:55;;;;;;;6.40;4.20;;;;;;;7.29;82.12;101658.45;105662;1257;69102;-59
2023/05/19 02:24:23;;;;;;;8.30;4.70;;;;;;;7.27;81.93;101661.23;105589;1256;69162;-60
2023/05/19 02:26:52;;;;;;;7.30;4.60;;;;;;;7.28;82.37;101661.92;105607;1257;74993;-61
2023/05/19 02:29:21;;;;;;;7.60;4.80;;;;;;;7.31;82.35;101663.48;105567;1251;83420;-59
2023/05/19 02:31:50;;;;;;;7.10;4.40;;;;;;;7.30;82.39;101661.56;105676;1251;73445;-59
2023/05/19 02:34:19;;;;;;;6.80;4.70;;;;;;;7.30;82.63;101660.01;105622;1257;69109;-60
2023/05/19 02:36:51;;;;;;;7.80;5.10;;;;;;;7.30;82.65;101656.53;105677;1256;69192;-59
2023/05/19 02:39:19;;;;;;;10.90;5.60;;;;;;;7.29;82.75;101658.27;105689;1251;74755;-59
2023/05/19 02:41:47;;;;;;;11.20;6.20;;;;;;;7.29;83.07;101654.11;105590;1251;83446;-58
2023/05/19 02:44:15;;;;;;;8.50;5.80;;;;;;;7.29;83.08;101654.63;105601;1251;73732;-58
2023/05/19 02:46:44;;;;;;;11.50;6.90;;;;;;;7.27;82.88;101654.10;105508;1251;69179;-58
2023/05/19 02:49:13;;;;;;;8.50;6.00;;;;;;;7.26;82.92;101649.07;105626;1256;69068;-59
2023/05/19 02:51:41;;;;;;;7.10;5.40;;;;;;;7.23;82.69;101651.33;105676;1256;75110;-59
2023/05/19 02:54:10;;;;;;;7.50;4.80;;;;;;;7.21;82.77;101647.52;105686;1251;83780;-58
2023/05/19 02:56:38;;;;;;;7.40;5.60;;;;;;;7.19;82.78;101649.79;105607;1251;72905;-60
2023/05/19 02:59:06;;;;;;;7.70;5.30;;;;;;;7.18;82.92;101646.30;105530;1257;69246;-62
2023/05/19 03:01:36;;;;;;;6.10;5.40;;;;;;;7.15;82.90;101645.63;105706;1251;69185;-60
2023/05/19 03:04:05;;;;;;;9.30;5.80;;;;;;;7.14;82.97;101648.40;105742;1257;73349;-59
2023/05/19 03:06:33;;;;;;;9.00;5.20;;;;;;;7.13;83.00;101648.59;105565;1256;82387;-59
2023/05/19 03:09:02;;;;;;;9.00;5.60;;;;;;;7.13;82.99;101647.36;105736;1256;73549;-59
2023/05/19 03:11:31;;;;;;;7.70;5.80;;;;;;;7.13;83.20;101652.75;105778;1251;69182;-59
2023/05/19 03:13:59;;;;;;;10.20;6.10;;;;;;;7.13;83.21;101650.85;105688;1256;69196;-59
2023/05/19 03:16:28;;;;;;;9.30;6.30;;;;;;;7.14;83.31;101655.35;105600;1251;74212;-59
2023/05/19 03:18:57;;;;;;;7.90;5.60;;;;;;;7.15;83.34;101652.40;105687;1255;83427;-59
2023/05/19 03:21:25;;;;;;;10.20;5.80;;;;;;;7.14;83.42;101651.52;105666;1257;73734;-59
2023/05/19 03:23:53;;;;;;;10.50;6.30;;;;;;;7.15;83.51;101655.02;105585;1251;69138;-59
2023/05/19 03:26:21;;;;;;;9.40;6.30;;;;;;;7.18;83.58;101655.35;105502;1254;69170;-59
2023/05/19 03:28:50;;;;;;;9.30;6.10;;;;;;;7.20;83.65;101654.64;105362;1254;171063;-59
2023/05/19 03:31:19;;;;;;;7.50;5.80;;;;;;;7.21;83.82;101647.86;105463;1254;83630;-59
2023/05/19 03:33:47;;;;;;;7.60;6.00;;;;;;;7.23;83.97;101652.02;105489;1257;73847;-59
2023/05/19 03:36:16;;;;;;;10.00;6.60;;;;;;;7.23;83.92;101654.98;105454;1257;69119;-59
2023/05/19 03:38:44;;;;;;;8.20;6.10;;;;;;;7.25;84.01;101657.93;105522;1257;69125;-59
2023/05/19 03:41:13;;;;;;;7.10;5.60;;;;;;;7.28;84.30;101655.50;105549;1254;73954;-60
2023/05/19 03:43:41;;;;;;;12.60;6.70;;;;;;;7.30;84.11;101654.78;105453;1257;82964;-58
2023/05/19 03:46:10;;;;;;;7.90;6.20;;;;;;;7.33;84.08;101652.17;105523;1258;71826;-58
2023/05/19 03:48:41;;;;;;;8.50;6.60;;;;;;;7.38;84.33;101650.58;105446;1257;69074;-58
2023/05/19 03:51:30;;;;;;;9.60;6.70;;;;;;;7.44;84.38;101653.00;105466;1257;69081;-58
2023/05/19 03:54:05;;;;;;;11.20;6.90;;;;;;;7.53;84.56;101647.56;105469;1257;74978;-58
2023/05/19 03:56:37;;;;;;;10.90;7.10;;;;;;;7.62;84.94;101649.45;105517;1254;83156;-58
2023/05/19 03:59:09;;;;;;;8.60;7.20;;;;;;;7.70;84.92;101650.45;105494;1255;71866;-58
2023/05/19 04:01:38;;;;;;;10.80;7.50;;;;;;;7.77;84.60;101656.66;105476;1253;69013;-58
2023/05/19 04:04:06;;;;;;;8.00;6.60;;;;;;;7.82;84.69;101659.95;105440;1258;69188;-58
2023/05/19 04:06:35;;;;;;;9.00;6.60;;;;;;;7.90;85.06;101659.03;105429;1257;73820;-58
2023/05/19 04:09:11;;;;;;;14.30;7.10;;;;;;;7.97;84.87;101656.38;105452;1254;82638;-58
2023/05/19 04:11:40;;;;;;;11.70;7.50;;;;;;;8.02;84.74;101654.60;105399;1254;72752;-58
2023/05/19 04:14:08;;;;;;;8.60;7.40;;;;;;;8.09;84.80;101658.22;105477;1254;69698;-58
2023/05/19 04:16:37;;;;;;;12.00;8.00;;;;;;;8.15;84.71;101663.58;105347;1253;69147;-58
2023/05/19 04:19:05;;;;;;;11.90;8.40;;;;;;;8.22;84.53;101664.23;105558;1256;75537;-58
2023/05/19 04:21:35;;;;;;;9.40;8.20;;;;;;;8.25;84.39;101663.86;105521;1254;83806;-58
2023/05/19 04:24:05;;;;;;;10.10;8.10;;;;;;;8.33;84.35;101665.54;105456;1254;72815;-58
2023/05/19 04:26:34;;;;;;;10.70;7.40;;;;;;;8.39;84.38;101662.38;105514;1252;69157;-58
2023/05/19 04:29:03;;;;;;;13.80;8.00;;;;;;;8.46;84.41;101664.59;105659;1251;69055;-57
2023/05/19 04:31:34;;;;;;;9.40;7.30;;;;;;;8.53;84.41;101662.10;105736;1256;74351;-58
2023/05/19 04:34:03;;;;;;;14.10;7.60;;;;;;;8.61;84.40;101660.29;105678;1251;83390;-58
2023/05/19 04:36:32;;;;;;;13.20;7.50;;;;;;;8.69;84.07;101659.34;105683;1251;73357;-58
2023/05/19 04:39:06;;;;;;;10.70;7.10;;;;;;;8.78;84.23;101659.27;105671;1251;69131;-58
2023/05/19 04:41:34;;;;;;;10.60;7.40;;;;;;;8.86;84.08;101658.83;105627;1251;69191;-58
2023/05/19 04:44:05;;;;;;;11.30;7.80;;;;;;;8.96;84.02;101657.52;105591;1257;73698;-58
2023/05/19 04:46:35;;;;;;;11.20;7.60;;;;;;;9.06;84.09;101653.40;105587;1251;83352;-58
2023/05/19 04:49:05;;;;;;;10.90;7.70;;;;;;;9.16;83.98;101655.39;105642;1255;74021;-59
2023/05/19 04:51:34;;;;;;;10.40;7.50;;;;;;;9.24;83.90;101653.03;105561;1254;69071;-58
2023/05/19 04:54:03;;;;;;;9.30;8.00;;;;;;;9.31;83.77;101653.48;105685;1251;69336;-57
2023/05/19 04:56:31;;;;;;;9.30;8.00;;;;;;;9.39;83.71;101657.39;105562;1258;75123;-58
2023/05/19 04:58:59;;;;;;;12.60;8.70;;;;;;;9.47;83.48;101654.15;105596;1251;82518;-58
2023/05/19 05:01:29;;;;;;;11.30;7.60;;;;;;;9.55;83.41;101652.48;105707;1251;73796;-57
2023/05/19 05:03:59;;;;;;;12.50;8.10;;;;;;;9.65;83.46;101648.69;105699;1257;69211;-59
2023/05/19 05:06:28;;;;;;;10.20;7.50;;;;;;;9.73;83.09;101652.23;105666;1257;69173;-58
2023/05/19 05:08:56;;;;;;;9.80;6.90;;;;;;;9.81;83.04;101653.36;105638;1257;73969;-58
2023/05/19 05:11:26;;;;;;;10.50;7.20;;;;;;;9.93;83.22;101654.77;105739;1251;83759;-59
2023/05/19 05:13:56;;;;;;;11.90;6.80;;;;;;;10.05;83.24;101649.17;105828;1254;73757;-59
2023/05/19 05:16:27;;;;;;;10.70;7.40;;;;;;;10.15;82.80;101648.16;105801;1251;69292;-60
2023/05/19 05:18:57;;;;;;;13.20;7.30;;;;;;;10.25;82.51;101644.87;105749;1251;69099;-61
2023/05/19 05:21:26;;;;;;;10.50;7.40;;;;;;;10.33;82.67;101647.20;105917;1251;74340;-60
2023/05/19 05:23:55;;;;;;;10.80;7.40;;;;;;;10.40;82.40;101645.34;105670;1254;82283;-59
2023/05/19 05:26:29;;;;;;;9.60;7.10;;;;;;;10.47;82.18;101647.50;105621;1252;73679;-59
2023/05/19 05:28:57;;;;;;;11.40;7.90;;;;;;;10.54;82.00;101650.17;105607;1254;69523;-59
2023/05/19 05:31:25;;;;;;;10.40;7.80;;;;;;;10.61;81.91;101650.06;105583;1254;69109;-59
2023/05/19 05:33:54;;;;;;;10.10;6.70;;;;;;;10.70;81.92;101650.42;105524;1253;75240;-60
2023/05/19 05:36:24;;;;;;;9.00;6.60;;;;;;;10.80;81.54;101648.67;105672;1257;83690;-59
2023/05/19 05:38:53;;;;;;;8.90;6.60;;;;;;;10.91;81.48;101644.81;105640;1256;73889;-59
2023/05/19 05:41:22;;;;;;;10.30;6.50;;;;;;;11.00;81.19;101646.20;105656;1256;69217;-59
2023/05/19 05:43:51;;;;;;;8.90;6.10;;;;;;;11.09;80.98;101647.08;105888;1256;69103;-60
2023/05/19 05:46:20;;;;;;;10.00;6.60;;;;;;;11.22;81.09;101647.17;105697;1257;74908;-59
2023/05/19 05:48:48;;;;;;;10.20;6.50;;;;;;;11.34;80.85;101648.53;105666;1251;82864;-60
2023/05/19 05:51:20;;;;;;;10.50;6.40;;;;;;;11.43;80.84;101648.48;105615;1257;74151;-59
2023/05/19 05:53:53;;;;;;;9.00;6.30;;;;;;;11.55;80.46;101647.21;105685;1256;69183;-59
2023/05/19 05:56:26;;;;;;;8.30;6.40;;;;;;;11.62;80.26;101648.10;105762;1256;69189;-57
2023/05/19 05:58:55;;;;;;;8.20;6.00;;;;;;;11.71;80.00;101645.66;105727;1253;73876;-59
2023/05/19 06:01:23;;;;;;;8.40;6.30;;;;;;;11.78;80.00;101644.43;105649;1252;83831;-59
2023/05/19 06:03:53;;;;;;;9.40;6.10;;;;;;;11.91;80.18;101643.12;105620;1256;73009;-59
2023/05/19 06:06:22;;;;;;;10.70;6.00;;;;;;;12.05;79.82;101646.14;105665;1257;69118;-59
2023/05/19 06:08:52;;;;;;;8.80;5.20;;;;;;;12.17;79.50;101644.46;105901;1251;69163;-59
2023/05/19 06:11:20;;;;;;;9.10;5.20;;;;;;;12.29;79.35;101647.33;105555;1254;73947;-59
2023/05/19 06:13:49;;;;;;;7.50;4.90;;;;;;;12.43;79.17;101651.01;105646;1252;83498;-58
2023/05/19 06:16:34;;;;;;;6.70;4.80;;;;;;;12.60;78.83;101651.27;105606;1254;73665;-58
2023/05/19 06:19:02;;;;;;;7.00;4.00;;;;;;;12.74;78.24;101649.35;105785;1254;69180;-58
2023/05/19 06:21:31;;;;;;;5.70;3.70;;;;;;;12.86;78.01;101648.86;105682;1252;69103;-58
2023/05/19 06:23:59;;;;;;;5.60;3.70;;;;;;;12.94;77.23;101652.33;105625;1254;75117;-59
2023/05/19 06:26:28;;;;;;;6.50;3.20;;;;;;;12.97;76.40;101655.23;105557;1254;83634;-58
2023/05/19 06:28:56;;;;;;;5.40;3.60;;;;;;;13.03;76.37;101656.48;105623;1257;73237;-57
2023/05/19 06:31:25;;;;;;;5.40;3.40;;;;;;;13.12;75.86;101654.80;105638;1257;69209;-57
2023/05/19 06:33:56;;;;;;;5.10;3.00;;;;;;;13.24;75.62;101655.02;105842;1253;69833;-58
2023/05/19 06:36:24;;;;;;;4.30;2.90;;;;;;;13.27;74.77;101657.94;105651;1257;75253;-57
2023/05/19 06:38:55;;;;;;;5.50;3.20;;;;;;;13.23;74.41;101658.38;105742;1255;83421;-58
2023/05/19 06:41:23;;;;;;;4.00;2.80;;;;;;;13.23;74.10;101658.73;105793;1251;73475;-58
2023/05/19 06:43:52;;;;;;;5.00;2.80;;;;;;;13.28;74.12;101661.78;105698;1257;69131;-58
2023/05/19 06:46:22;;;;;;;4.70;2.60;;;;;;;13.36;74.06;101660.31;105764;1251;69068;-57
2023/05/19 06:48:51;;;;;;;3.10;2.20;;;;;;;13.44;73.79;101663.25;105706;1256;75128;-59
2023/05/19 06:51:22;;;;;;;3.80;2.20;;;;;;;13.51;73.60;101661.66;105605;1257;83391;-60
2023/05/19 06:53:54;;;;;;;3.30;2.10;;;;;;;13.58;73.35;101658.48;105676;1251;74418;-59
2023/05/19 06:56:23;;;;;;;3.90;2.00;;;;;;;13.64;73.02;101660.39;105829;1254;69075;-59
2023/05/19 06:58:51;;;;;;;4.90;1.80;;;;;;;13.70;72.30;101662.86;105604;1256;69162;-59
2023/05/19 07:01:20;;;;;;;6.10;2.20;;;;;;;13.70;71.76;101664.08;105630;1257;75067;-58
2023/05/19 07:03:52;;;;;;;3.30;2.10;;;;;;;13.72;71.70;101667.54;105649;1251;83346;-58
2023/05/19 07:06:21;;;;;;;5.80;1.90;;;;;;;13.75;71.32;101666.75;105783;1251;73567;-59
2023/05/19 07:08:51;;;;;;;2.50;1.40;;;;;;;13.79;71.22;101667.66;105769;1251;69182;-59
2023/05/19 07:11:20;;;;;;;3.20;1.50;;;;;;;13.84;70.80;101668.56;105632;1251;69065;-59
2023/05/19 07:13:49;;;;;;;3.70;1.70;;;;;;;13.89;70.35;101670.71;105754;1255;73963;-58
2023/05/19 07:16:22;;;;;;;4.20;2.20;;;;;;;13.94;70.22;101671.25;105592;1254;82980;-58
2023/05/19 07:18:51;;;;;;;4.10;2.40;;;;;;;13.97;69.84;101671.70;105667;1255;73682;-59
2023/05/19 07:21:19;;;;;;;4.00;2.10;;;;;;;14.03;69.79;101670.78;105654;1251;69191;-57
2023/05/19 07:23:48;;;;;;;4.10;2.10;;;;;;;14.11;69.62;101672.14;105636;1251;69128;-59
2023/05/19 07:26:16;;;;;;;5.50;2.40;;;;;;;14.17;69.28;101673.00;105750;1251;75301;-59
2023/05/19 07:28:45;;;;;;;3.60;2.00;;;;;;;14.24;69.38;101670.67;105646;1251;83829;-59
2023/05/19 07:31:13;;;;;;;4.60;2.50;;;;;;;14.34;69.23;101670.55;105730;1254;74314;-58
2023/05/19 07:33:41;;;;;;;7.60;2.40;;;;;;;14.39;68.84;101670.34;105732;1254;68994;-59
2023/05/19 07:36:10;;;;;;;4.70;2.40;;;;;;;14.40;68.53;101668.74;105815;1253;69182;-58
2023/05/19 07:38:38;;;;;;;5.30;2.60;;;;;;;14.43;68.65;101667.40;105759;1253;74983;-56
2023/05/19 07:41:06;;;;;;;5.40;2.80;;;;;;;14.52;68.78;101662.38;105662;1251;82404;-58
2023/05/19 07:43:35;;;;;;;4.50;3.20;;;;;;;14.58;68.28;101663.43;105620;1254;73546;-59
2023/05/19 07:46:04;;;;;;;4.10;2.90;;;;;;;14.58;68.19;101664.47;105735;1251;69189;-59
2023/05/19 07:48:33;;;;;;;5.20;3.00;;;;;;;14.60;67.93;101658.26;105757;1254;69150;-59
2023/05/19 07:51:01;;;;;;;6.50;2.90;;;;;;;14.62;67.81;101657.15;105694;1256;73978;-58
2023/05/19 07:53:29;;;;;;;4.90;3.20;;;;;;;14.64;67.83;101654.23;105695;1252;82978;-59
2023/05/19 07:55:58;;;;;;;4.20;2.80;;;;;;;14.67;67.63;101654.33;105623;1251;71780;-59
2023/05/19 07:58:26;;;;;;;3.90;2.90;;;;;;;14.69;67.70;101652.15;105745;1251;69163;-59
2023/05/19 08:00:58;;;;;;;6.10;3.30;;;;;;;14.73;67.74;101654.48;105744;1254;69122;-57
2023/05/19 08:03:26;;;;;;;7.60;2.90;;;;;;;14.79;67.50;101654.60;105666;1252;74400;-57
2023/05/19 08:05:55;;;;;;;4.70;3.00;;;;;;;14.89;67.72;101645.98;105698;1251;82509;-59
2023/05/19 08:08:24;;;;;;;3.90;2.40;;;;;;;14.97;66.76;101646.80;105778;1251;73814;-58
2023/05/19 08:10:52;;;;;;;4.80;2.80;;;;;;;14.98;66.82;101646.22;105727;1256;69109;-59
2023/05/19 08:13:21;;;;;;;5.40;3.30;;;;;;;15.11;66.83;101646.80;105609;1254;69087;-58
2023/05/19 08:15:49;;;;;;;4.30;2.80;;;;;;;15.21;66.71;101643.96;105523;1254;74846;-59
2023/05/19 08:18:18;;;;;;;4.10;2.70;;;;;;;15.29;66.58;101652.30;105532;1254;82794;-59
2023/05/19 08:20:46;;;;;;;6.70;2.90;;;;;;;15.37;66.20;101649.56;105611;1256;74086;-57
2023/05/19 08:23:14;;;;;;;5.30;3.00;;;;;;;15.36;65.72;101651.54;105563;1254;69176;-51
2023/05/19 08:25:43;;;;;;;6.90;3.50;;;;;;;15.32;65.41;101649.36;105673;1253;69132;-55
2023/05/19 08:28:11;;;;;;;5.10;3.20;;;;;;;15.28;65.16;101651.80;105613;1254;74877;-54
2023/05/19 08:30:40;;;;;;;10.40;3.30;;;;;;;15.27;64.96;101654.66;105591;1257;83260;-51
2023/05/19 08:33:08;;;;;;;6.10;3.00;;;;;;;15.27;64.81;101655.56;105597;1254;73886;-51
2023/05/19 08:35:37;;;;;;;4.70;3.20;;;;;;;15.28;64.92;101655.02;105550;1256;69892;-51
2023/05/19 08:38:05;;;;;;;6.40;3.70;;;;;;;15.24;64.82;101655.85;105504;1252;70350;-52
2023/05/19 08:40:36;;;;;;;4.10;3.10;;;;;;;15.26;64.64;101654.88;105536;1254;75080;-51
2023/05/19 08:43:04;;;;;;;3.50;3.00;;;;;;;15.31;64.60;101657.86;105613;1254;82002;-52
2023/05/19 08:45:33;;;;;;;5.00;2.80;;;;;;;15.32;64.17;101655.39;105549;1253;73024;-50
2023/05/19 08:48:03;;;;;;;4.90;2.90;;;;;;;15.26;63.57;101653.66;105614;1252;69251;-58
2023/05/19 08:50:35;;;;;;;5.60;3.00;;;;;;;15.22;63.72;101651.88;105567;1254;69129;-58
2023/05/19 08:53:14;;;;;;;5.90;2.80;;;;;;;15.17;63.88;101651.87;105792;1253;73828;-59
2023/05/19 08:56:09;;;;;;;3.70;2.80;;;;;;;15.11;63.84;101649.41;105577;1256;83630;-59
2023/05/19 08:58:40;;;;;;;6.10;3.20;;;;;;;15.05;63.62;101650.70;105639;1255;73430;-59
2023/05/19 09:01:09;;;;;;;6.40;3.00;;;;;;;15.06;63.72;101651.71;105625;1251;69184;-59
2023/05/19 09:03:38;;;;;;;4.70;3.00;;;;;;;15.06;63.57;101651.20;105668;1251;69090;-58
2023/05/19 09:06:16;;;;;;;4.80;2.50;;;;;;;14.99;63.61;101648.63;105549;1256;73117;-58
2023/05/19 09:08:45;;;;;;;8.70;2.80;;;;;;;14.94;63.81;101649.51;105604;1251;81618;-58
2023/05/19 09:11:14;;;;;;;3.70;2.70;;;;;;;15.03;63.66;101649.54;105571;1251;73658;-58
2023/05/19 09:13:42;;;;;;;5.00;2.70;;;;;;;15.14;63.68;101651.46;105635;1256;69118;-58
2023/05/19 09:16:12;;;;;;;6.20;2.90;;;;;;;15.23;63.31;101647.42;105638;1255;69192;-60
2023/05/19 09:18:53;;;;;;;4.80;3.00;;;;;;;15.38;63.61;101647.60;105816;1251;74974;-58
2023/05/19 09:21:32;;;;;;;3.80;3.10;;;;;;;15.44;63.09;101641.89;105658;1251;83172;-57
2023/05/19 09:24:05;;;;;;;4.60;2.80;;;;;;;15.37;62.62;101636.17;105756;1256;73864;-58
2023/05/19 09:26:41;;;;;;;5.50;2.70;;;;;;;15.21;62.21;101638.52;105664;1256;69109;-58
2023/05/19 09:29:13;;;;;;;5.10;2.60;;;;;;;15.04;62.63;101640.72;105610;1251;69010;-58
2023/05/19 09:31:53;;;;;;;3.10;2.60;;;;;;;14.98;62.92;101637.27;105723;1257;74928;-58
2023/05/19 09:34:23;;;;;;;3.50;2.40;;;;;;;14.87;62.58;101638.52;105747;1254;83608;-58
2023/05/19 09:36:52;;;;;;;3.80;2.60;;;;;;;14.75;62.69;101637.17;105687;1251;72616;-58
2023/05/19 09:39:22;;;;;;;3.50;2.60;;;;;;;14.66;62.68;101636.77;105645;1251;69174;-57
2023/05/19 09:41:58;;;;;;;3.40;2.70;;;;;;;14.68;62.70;101639.16;105644;1256;69188;-59
2023/05/19 09:44:30;;;;;;;6.00;2.60;;;;;;;14.77;63.31;101645.20;105631;1256;73858;-58
2023/05/19 09:46:58;;;;;;;5.60;2.70;;;;;;;14.89;63.10;101643.88;105655;1254;83383;-59
2023/05/19 09:49:29;;;;;;;7.40;3.10;;;;;;;14.92;62.82;101644.82;105644;1254;73458;-59
2023/05/19 09:52:00;;;;;;;5.20;2.90;;;;;;;14.99;63.03;101639.88;105661;1255;69523;-59
2023/05/19 09:54:31;;;;;;;3.90;2.60;;;;;;;15.12;63.09;101640.44;105690;1251;69172;-59
2023/05/19 09:57:01;;;;;;;8.80;3.60;;;;;;;15.21;62.79;101640.11;105679;1255;73985;-59
2023/05/19 09:59:29;;;;;;;5.10;2.60;;;;;;;15.24;62.76;101641.77;105714;1256;83537;-59
2023/05/19 10:02:01;;;;;;;5.70;2.70;;;;;;;15.29;62.67;101639.80;105647;1251;72706;-59
2023/05/19 10:04:30;;;;;;;8.50;3.00;;;;;;;15.42;62.71;101635.98;105658;1251;69163;-59
2023/05/19 10:06:59;;;;;;;21.30;3.90;;;;;;;15.50;62.31;101631.81;105675;1256;69221;-59
2023/05/19 10:09:28;;;;;;;5.40;2.20;;;;;;;15.53;62.23;101629.40;105613;1257;74765;-58
2023/05/19 10:11:57;;;;;;;3.80;1.80;;;;;;;15.55;62.05;101623.34;105691;1257;83379;-59
2023/05/19 10:14:28;;;;;;;3.30;1.80;;;;;;;15.55;61.67;101620.70;105659;1251;73731;-58
2023/05/19 10:16:58;;;;;;;4.60;1.80;;;;;;;15.58;61.51;101617.38;105609;1251;69192;-58
2023/05/19 10:19:27;;;;;;;3.80;2.00;;;;;;;15.68;61.51;101620.02;105671;1251;69205;-58
2023/05/19 10:21:56;;;;;;;3.50;2.10;;;;;;;15.88;61.63;101614.34;105689;1251;74884;-59
2023/05/19 10:24:25;;;;;;;7.50;3.00;;;;;;;16.10;61.57;101609.92;105694;1257;83143;-58
2023/05/19 10:27:06;;;;;;;6.40;2.70;;;;;;;16.23;61.14;101602.52;105642;1251;72351;-59
2023/05/19 10:29:38;;;;;;;20.00;4.60;;;;;;;16.32;60.92;101610.95;105601;1251;69197;-59
2023/05/19 10:32:10;;;;;;;4.40;2.20;;;;;;;16.36;60.85;101615.02;105592;1251;69113;-59
2023/05/19 10:35:06;;;;;;;5.10;2.90;;;;;;;16.38;60.65;101607.14;105680;1251;73916;-59
2023/05/19 10:37:58;;;;;;;5.30;3.20;;;;;;;16.34;60.28;101606.98;105606;1256;82312;-57
2023/05/19 10:40:28;;;;;;;4.00;2.50;;;;;;;16.21;59.98;101605.95;105589;1257;72845;-57
2023/05/19 10:43:21;;;;;;;6.00;3.50;;;;;;;16.02;59.86;101597.88;105578;1251;69197;-57
2023/05/19 10:45:53;;;;;;;5.00;3.00;;;;;;;15.83;59.84;101597.27;105646;1251;69061;-57
2023/05/19 10:48:22;;;;;;;3.70;2.70;;;;;;;15.71;60.18;101593.67;105602;1251;74882;-58
2023/05/19 10:50:54;;;;;;;6.80;2.80;;;;;;;15.68;60.56;101594.83;105612;1251;83413;-58
2023/05/19 10:53:29;;;;;;;6.50;3.20;;;;;;;15.82;60.88;101593.05;105606;1251;73811;-58
2023/05/19 10:56:03;;;;;;;3.80;3.00;;;;;;;15.90;60.61;101593.62;105627;1251;69176;-57
2023/05/19 10:58:40;;;;;;;5.00;2.90;;;;;;;16.04;60.89;101591.11;105625;1256;69161;-57
2023/05/19 11:01:16;;;;;;;8.00;3.60;;;;;;;16.24;60.84;101593.99;105577;1256;74996;-60
2023/05/19 11:03:46;;;;;;;4.30;2.90;;;;;;;16.35;60.45;101594.96;105645;1251;83879;-57
2023/05/19 11:06:20;;;;;;;6.20;3.70;;;;;;;16.33;60.15;101596.30;105644;1256;73943;-57
2023/05/19 11:08:57;;;;;;;6.60;3.70;;;;;;;16.22;59.93;101596.20;105631;1251;69204;-58
2023/05/19 11:11:25;;;;;;;5.70;3.40;;;;;;;16.06;59.92;101597.02;105667;1251;69109;-58
2023/05/19 11:13:55;;;;;;;4.30;3.40;;;;;;;15.92;59.99;101598.68;105659;1256;74044;-57
2023/05/19 11:16:44;;;;;;;6.20;4.20;;;;;;;15.80;60.11;101600.55;105632;1251;82514;-58
2023/05/19 11:19:30;;;;;;;6.90;4.10;;;;;;;15.76;60.34;101601.59;105534;1251;73531;-58
2023/05/19 11:22:10;;;;;;;5.20;4.00;;;;;;;15.69;60.39;101596.55;105708;1251;69108;-58
2023/05/19 11:24:44;;;;;;;7.30;3.90;;;;;;;15.58;60.73;101597.65;105685;1251;69216;-58
2023/05/19 11:27:27;;;;;;;6.40;4.00;;;;;;;15.59;61.05;101597.11;105658;1256;75043;-58
2023/05/19 11:30:00;;;;;;;5.70;3.90;;;;;;;15.49;60.76;101595.20;105664;1256;83319;-58
2023/05/19 11:32:32;;;;;;;5.30;3.90;;;;;;;15.40;60.79;101598.00;105677;1256;73434;-58
2023/05/19 11:35:01;;;;;;;6.60;3.90;;;;;;;15.42;61.11;101597.06;105675;1251;69189;-58
2023/05/19 11:37:33;;;;;;;4.90;4.10;;;;;;;15.46;61.36;101599.57;105642;1254;69159;-58